sensor_id;sensor_type;location;lat;lon;timestamp;pressure;altitude;pressure_sealevel;temperature;humidity
69200;BME280;56313;49.804;9.952;2022-07-06T00:01:27;99794.25;;;18.31;47.69
69200;BME280;56313;49.804;9.952;2022-07-06T00:03:53;99795.81;;;18.26;47.79
69200;BME280;56313;49.804;9.952;2022-07-06T00:06:18;99791.50;;;18.09;48.64
69200;BME280;56313;49.804;9.952;2022-07-06T00:08:44;99794.69;;;18.05;48.33
69200;BME280;56313;49.804;9.952;2022-07-06T00:11:09;99797.00;;;18.08;48.07
69200;BME280;56313;49.804;9.952;2022-07-06T00:13:35;99795.34;;;17.92;48.61
69200;BME280;56313;49.804;9.952;2022-07-06T00:16:00;99799.53;;;18.01;49.31
69200;BME280;56313;49.804;9.952;2022-07-06T00:18:26;99798.25;;;17.82;49.50
69200;BME280;56313;49.804;9.952;2022-07-06T00:20:51;99798.16;;;17.75;49.57
69200;BME280;56313;49.804;9.952;2022-07-06T00:23:16;99804.00;;;17.70;49.31
69200;BME280;56313;49.804;9.952;2022-07-06T00:25:42;99800.63;;;17.77;49.44
69200;BME280;56313;49.804;9.952;2022-07-06T00:28:07;99799.44;;;17.79;49.49
69200;BME280;56313;49.804;9.952;2022-07-06T00:30:33;99800.63;;;17.77;49.14
69200;BME280;56313;49.804;9.952;2022-07-06T00:32:58;99797.09;;;17.84;49.07
69200;BME280;56313;49.804;9.952;2022-07-06T00:35:24;99797.53;;;17.88;48.92
69200;BME280;56313;49.804;9.952;2022-07-06T00:37:50;99790.31;;;17.82;49.13
69200;BME280;56313;49.804;9.952;2022-07-06T00:40:15;99789.03;;;17.93;49.03
69200;BME280;56313;49.804;9.952;2022-07-06T00:42:42;99787.94;;;18.02;48.81
69200;BME280;56313;49.804;9.952;2022-07-06T00:45:08;99791.97;;;17.98;48.98
69200;BME280;56313;49.804;9.952;2022-07-06T00:47:35;99794.97;;;17.80;49.43
69200;BME280;56313;49.804;9.952;2022-07-06T00:50:01;99804.31;;;17.76;49.50
69200;BME280;56313;49.804;9.952;2022-07-06T00:53:04;99805.09;;;17.76;49.25
69200;BME280;56313;49.804;9.952;2022-07-06T00:55:32;99798.53;;;17.72;49.27
69200;BME280;56313;49.804;9.952;2022-07-06T00:58:03;99794.16;;;17.79;49.18
69200;BME280;56313;49.804;9.952;2022-07-06T01:00:32;99792.78;;;17.83;49.14
69200;BME280;56313;49.804;9.952;2022-07-06T01:02:58;99800.66;;;17.92;53.73
69200;BME280;56313;49.804;9.952;2022-07-06T01:05:24;99798.44;;;17.95;49.87
69200;BME280;56313;49.804;9.952;2022-07-06T01:07:50;99800.47;;;18.08;49.32
69200;BME280;56313;49.804;9.952;2022-07-06T01:10:18;99803.38;;;17.68;49.89
69200;BME280;56313;49.804;9.952;2022-07-06T01:12:45;99797.34;;;17.59;50.20
69200;BME280;56313;49.804;9.952;2022-07-06T01:15:17;99801.38;;;17.85;50.22
69200;BME280;56313;49.804;9.952;2022-07-06T01:17:43;99800.84;;;17.90;52.35
69200;BME280;56313;49.804;9.952;2022-07-06T01:22:42;99791.44;;;17.88;53.46
69200;BME280;56313;49.804;9.952;2022-07-06T01:25:08;99789.31;;;17.83;51.53
69200;BME280;56313;49.804;9.952;2022-07-06T01:27:35;99790.88;;;18.38;58.30
69200;BME280;56313;49.804;9.952;2022-07-06T01:30:07;99788.66;;;17.81;50.02
69200;BME280;56313;49.804;9.952;2022-07-06T01:32:34;99784.53;;;17.63;50.94
69200;BME280;56313;49.804;9.952;2022-07-06T01:35:00;99784.19;;;17.81;51.35
69200;BME280;56313;49.804;9.952;2022-07-06T01:37:25;99782.72;;;17.64;50.71
69200;BME280;56313;49.804;9.952;2022-07-06T01:39:51;99793.75;;;17.52;50.86
69200;BME280;56313;49.804;9.952;2022-07-06T01:42:16;99793.94;;;17.66;51.45
69200;BME280;56313;49.804;9.952;2022-07-06T01:44:43;99791.75;;;17.54;51.17
69200;BME280;56313;49.804;9.952;2022-07-06T01:47:09;99794.25;;;17.32;52.86
69200;BME280;56313;49.804;9.952;2022-07-06T01:49:37;99797.63;;;17.26;51.84
69200;BME280;56313;49.804;9.952;2022-07-06T01:52:03;99788.22;;;17.24;51.74
69200;BME280;56313;49.804;9.952;2022-07-06T01:54:28;99788.22;;;17.24;51.85
69200;BME280;56313;49.804;9.952;2022-07-06T01:56:56;99793.25;;;17.33;51.54
69200;BME280;56313;49.804;9.952;2022-07-06T01:59:22;99791.66;;;17.09;55.49
69200;BME280;56313;49.804;9.952;2022-07-06T02:01:47;99792.28;;;17.50;53.83
69200;BME280;56313;49.804;9.952;2022-07-06T02:04:12;99792.41;;;17.33;51.79
69200;BME280;56313;49.804;9.952;2022-07-06T02:06:38;99798.28;;;17.28;51.50
69200;BME280;56313;49.804;9.952;2022-07-06T02:09:03;99794.97;;;17.26;51.75
69200;BME280;56313;49.804;9.952;2022-07-06T02:11:28;99800.53;;;17.16;51.84
69200;BME280;56313;49.804;9.952;2022-07-06T02:13:54;99798.59;;;17.02;52.14
69200;BME280;56313;49.804;9.952;2022-07-06T02:16:19;99804.28;;;18.51;67.66
69200;BME280;56313;49.804;9.952;2022-07-06T02:18:44;99797.09;;;17.84;52.70
69200;BME280;56313;49.804;9.952;2022-07-06T02:21:10;99797.53;;;17.19;52.10
69200;BME280;56313;49.804;9.952;2022-07-06T02:23:35;99801.47;;;16.92;52.41
69200;BME280;56313;49.804;9.952;2022-07-06T02:26:01;99802.94;;;16.94;52.39
69200;BME280;56313;49.804;9.952;2022-07-06T02:28:26;99799.19;;;17.12;51.92
69200;BME280;56313;49.804;9.952;2022-07-06T02:30:51;99803.34;;;17.15;51.90
69200;BME280;56313;49.804;9.952;2022-07-06T02:33:17;99802.25;;;17.24;54.57
69200;BME280;56313;49.804;9.952;2022-07-06T02:35:42;99804.31;;;17.14;54.60
69200;BME280;56313;49.804;9.952;2022-07-06T02:38:11;99809.34;;;17.00;52.04
69200;BME280;56313;49.804;9.952;2022-07-06T02:40:36;99809.25;;;16.93;52.45
69200;BME280;56313;49.804;9.952;2022-07-06T02:43:03;99805.91;;;17.00;52.29
69200;BME280;56313;49.804;9.952;2022-07-06T02:45:29;99806.34;;;16.80;52.45
69200;BME280;56313;49.804;9.952;2022-07-06T02:47:54;99801.88;;;16.80;52.59
69200;BME280;56313;49.804;9.952;2022-07-06T02:50:22;99812.66;;;16.70;53.01
69200;BME280;56313;49.804;9.952;2022-07-06T02:52:48;99808.13;;;16.56;53.39
69200;BME280;56313;49.804;9.952;2022-07-06T02:55:13;99811.94;;;16.53;53.21
69200;BME280;56313;49.804;9.952;2022-07-06T02:57:39;99812.91;;;16.61;53.17
69200;BME280;56313;49.804;9.952;2022-07-06T03:00:05;99816.22;;;16.54;53.32
69200;BME280;56313;49.804;9.952;2022-07-06T03:02:31;99816.50;;;16.68;52.84
69200;BME280;56313;49.804;9.952;2022-07-06T03:04:56;99823.78;;;16.66;53.33
69200;BME280;56313;49.804;9.952;2022-07-06T03:07:22;99826.28;;;16.59;53.32
69200;BME280;56313;49.804;9.952;2022-07-06T03:09:47;99831.47;;;16.52;53.43
69200;BME280;56313;49.804;9.952;2022-07-06T03:12:13;99825.84;;;16.55;53.29
69200;BME280;56313;49.804;9.952;2022-07-06T03:14:38;99825.69;;;16.49;53.80
69200;BME280;56313;49.804;9.952;2022-07-06T03:17:04;99830.50;;;16.37;54.08
69200;BME280;56313;49.804;9.952;2022-07-06T03:19:29;99824.09;;;16.39;53.85
69200;BME280;56313;49.804;9.952;2022-07-06T03:21:54;99824.72;;;16.41;54.37
69200;BME280;56313;49.804;9.952;2022-07-06T03:24:20;99830.38;;;16.30;54.00
69200;BME280;56313;49.804;9.952;2022-07-06T03:26:45;99828.03;;;16.35;54.26
69200;BME280;56313;49.804;9.952;2022-07-06T03:29:10;99827.50;;;16.08;55.04
69200;BME280;56313;49.804;9.952;2022-07-06T03:31:36;99831.91;;;16.24;54.54
69200;BME280;56313;49.804;9.952;2022-07-06T03:34:01;99832.25;;;16.13;55.14
69200;BME280;56313;49.804;9.952;2022-07-06T03:36:27;99827.91;;;16.28;54.71
69200;BME280;56313;49.804;9.952;2022-07-06T03:38:52;99829.16;;;16.49;54.47
69200;BME280;56313;49.804;9.952;2022-07-06T03:41:18;99835.41;;;16.56;54.28
69200;BME280;56313;49.804;9.952;2022-07-06T03:43:46;99838.44;;;16.37;54.84
69200;BME280;56313;49.804;9.952;2022-07-06T03:46:11;99837.25;;;16.48;54.43
69200;BME280;56313;49.804;9.952;2022-07-06T03:48:37;99842.03;;;16.52;54.38
69200;BME280;56313;49.804;9.952;2022-07-06T03:51:02;99841.06;;;16.77;53.68
69200;BME280;56313;49.804;9.952;2022-07-06T03:53:28;99841.41;;;16.82;53.36
69200;BME280;56313;49.804;9.952;2022-07-06T03:55:56;99845.63;;;16.91;53.25
69200;BME280;56313;49.804;9.952;2022-07-06T03:58:40;99842.31;;;16.57;54.37
69200;BME280;56313;49.804;9.952;2022-07-06T04:01:05;99843.19;;;16.50;54.22
69200;BME280;56313;49.804;9.952;2022-07-06T04:03:31;99844.69;;;16.44;54.86
69200;BME280;56313;49.804;9.952;2022-07-06T04:05:56;99841.03;;;16.53;54.49
69200;BME280;56313;49.804;9.952;2022-07-06T04:08:21;99843.34;;;16.56;54.09
69200;BME280;56313;49.804;9.952;2022-07-06T04:10:47;99850.31;;;16.41;54.51
69200;BME280;56313;49.804;9.952;2022-07-06T04:13:12;99841.53;;;16.57;54.08
69200;BME280;56313;49.804;9.952;2022-07-06T04:15:37;99849.75;;;16.62;53.91
69200;BME280;56313;49.804;9.952;2022-07-06T04:18:03;99852.16;;;16.72;53.90
69200;BME280;56313;49.804;9.952;2022-07-06T04:20:29;99862.50;;;16.58;53.88
69200;BME280;56313;49.804;9.952;2022-07-06T04:22:54;99863.47;;;16.66;54.25
69200;BME280;56313;49.804;9.952;2022-07-06T04:25:19;99868.09;;;16.64;54.08
69200;BME280;56313;49.804;9.952;2022-07-06T04:27:45;99867.34;;;16.78;54.18
69200;BME280;56313;49.804;9.952;2022-07-06T04:30:11;99872.03;;;16.68;53.98
69200;BME280;56313;49.804;9.952;2022-07-06T04:32:36;99869.22;;;16.69;54.07
69200;BME280;56313;49.804;9.952;2022-07-06T04:35:04;99875.97;;;16.80;54.37
69200;BME280;56313;49.804;9.952;2022-07-06T04:37:29;99874.16;;;16.72;54.38
69200;BME280;56313;49.804;9.952;2022-07-06T04:39:55;99873.00;;;16.75;54.13
69200;BME280;56313;49.804;9.952;2022-07-06T04:42:24;99875.53;;;16.60;54.68
69200;BME280;56313;49.804;9.952;2022-07-06T04:44:49;99880.03;;;17.85;63.62
69200;BME280;56313;49.804;9.952;2022-07-06T04:47:17;99885.03;;;17.18;53.59
69200;BME280;56313;49.804;9.952;2022-07-06T04:49:42;99884.16;;;16.94;54.35
69200;BME280;56313;49.804;9.952;2022-07-06T04:52:07;99884.41;;;16.76;54.60
69200;BME280;56313;49.804;9.952;2022-07-06T04:57:34;99889.66;;;16.84;54.44
69200;BME280;56313;49.804;9.952;2022-07-06T04:59:59;99887.78;;;16.93;54.36
69200;BME280;56313;49.804;9.952;2022-07-06T05:02:25;99889.09;;;17.29;59.18
69200;BME280;56313;49.804;9.952;2022-07-06T05:04:50;99895.09;;;16.82;54.28
69200;BME280;56313;49.804;9.952;2022-07-06T05:07:16;99887.97;;;18.23;62.07
69200;BME280;56313;49.804;9.952;2022-07-06T05:09:41;99892.41;;;18.83;58.80
69200;BME280;56313;49.804;9.952;2022-07-06T05:12:07;99891.31;;;17.40;53.43
69200;BME280;56313;49.804;9.952;2022-07-06T05:14:33;99897.88;;;17.29;59.98
69200;BME280;56313;49.804;9.952;2022-07-06T05:16:58;99890.03;;;17.59;52.97
69200;BME280;56313;49.804;9.952;2022-07-06T05:19:24;99892.97;;;17.18;53.77
69200;BME280;56313;49.804;9.952;2022-07-06T05:21:50;99902.13;;;17.07;54.03
69200;BME280;56313;49.804;9.952;2022-07-06T05:24:15;99905.38;;;17.17;54.45
69200;BME280;56313;49.804;9.952;2022-07-06T05:26:41;99905.06;;;17.12;54.31
69200;BME280;56313;49.804;9.952;2022-07-06T05:29:07;99909.47;;;17.52;53.60
69200;BME280;56313;49.804;9.952;2022-07-06T05:31:35;99906.34;;;18.40;51.36
69200;BME280;56313;49.804;9.952;2022-07-06T05:34:00;99906.44;;;19.14;48.85
69200;BME280;56313;49.804;9.952;2022-07-06T05:36:26;99904.91;;;19.05;49.25
69200;BME280;56313;49.804;9.952;2022-07-06T05:38:51;99909.47;;;19.48;49.20
69200;BME280;56313;49.804;9.952;2022-07-06T05:41:16;99906.41;;;19.51;48.91
69200;BME280;56313;49.804;9.952;2022-07-06T05:43:42;99912.19;;;18.81;55.80
69200;BME280;56313;49.804;9.952;2022-07-06T05:46:07;99913.75;;;18.60;50.77
69200;BME280;56313;49.804;9.952;2022-07-06T05:48:33;99905.44;;;18.48;57.36
69200;BME280;56313;49.804;9.952;2022-07-06T05:51:17;99913.38;;;18.18;52.12
69200;BME280;56313;49.804;9.952;2022-07-06T05:53:42;99916.50;;;19.04;60.89
69200;BME280;56313;49.804;9.952;2022-07-06T05:56:30;99923.34;;;18.91;51.03
69200;BME280;56313;49.804;9.952;2022-07-06T05:59:07;99921.34;;;18.48;55.67
69200;BME280;56313;49.804;9.952;2022-07-06T06:01:33;99922.75;;;18.44;54.51
69200;BME280;56313;49.804;9.952;2022-07-06T06:03:58;99920.94;;;18.81;53.29
69200;BME280;56313;49.804;9.952;2022-07-06T06:06:36;99925.94;;;18.39;52.22
69200;BME280;56313;49.804;9.952;2022-07-06T06:09:01;99924.56;;;18.73;51.24
69200;BME280;56313;49.804;9.952;2022-07-06T06:11:27;99926.00;;;19.28;60.40
69200;BME280;56313;49.804;9.952;2022-07-06T06:13:52;99932.16;;;19.50;51.16
69200;BME280;56313;49.804;9.952;2022-07-06T06:16:17;99929.38;;;18.70;51.64
69200;BME280;56313;49.804;9.952;2022-07-06T06:18:43;99925.47;;;18.35;55.04
69200;BME280;56313;49.804;9.952;2022-07-06T06:21:09;99921.56;;;18.08;52.88
69200;BME280;56313;49.804;9.952;2022-07-06T06:23:34;99929.78;;;17.98;53.32
69200;BME280;56313;49.804;9.952;2022-07-06T06:26:00;99920.53;;;17.94;53.17
69200;BME280;56313;49.804;9.952;2022-07-06T06:28:25;99925.47;;;18.51;54.84
69200;BME280;56313;49.804;9.952;2022-07-06T06:30:50;99923.56;;;18.29;52.51
69200;BME280;56313;49.804;9.952;2022-07-06T06:33:18;99923.47;;;17.99;55.54
69200;BME280;56313;49.804;9.952;2022-07-06T06:35:49;99924.72;;;18.27;59.26
69200;BME280;56313;49.804;9.952;2022-07-06T06:38:16;99920.34;;;18.49;52.22
69200;BME280;56313;49.804;9.952;2022-07-06T06:40:42;99927.88;;;18.60;54.02
69200;BME280;56313;49.804;9.952;2022-07-06T06:43:07;99926.38;;;18.43;53.34
69200;BME280;56313;49.804;9.952;2022-07-06T06:45:36;99925.50;;;19.40;53.72
69200;BME280;56313;49.804;9.952;2022-07-06T06:48:01;99918.81;;;18.92;51.49
69200;BME280;56313;49.804;9.952;2022-07-06T06:50:27;99922.09;;;19.24;57.73
69200;BME280;56313;49.804;9.952;2022-07-06T06:52:52;99920.09;;;19.11;49.94
69200;BME280;56313;49.804;9.952;2022-07-06T06:55:18;99926.88;;;19.57;53.40
69200;BME280;56313;49.804;9.952;2022-07-06T06:57:45;99919.91;;;19.12;50.97
69200;BME280;56313;49.804;9.952;2022-07-06T07:00:11;99923.03;;;19.01;50.93
69200;BME280;56313;49.804;9.952;2022-07-06T07:02:37;99927.44;;;19.96;57.34
69200;BME280;56313;49.804;9.952;2022-07-06T07:05:04;99919.16;;;19.19;50.13
69200;BME280;56313;49.804;9.952;2022-07-06T07:07:30;99924.84;;;20.03;49.54
69200;BME280;56313;49.804;9.952;2022-07-06T07:09:55;99933.44;;;20.05;55.78
69200;BME280;56313;49.804;9.952;2022-07-06T07:12:20;99934.50;;;19.60;49.30
69200;BME280;56313;49.804;9.952;2022-07-06T07:14:49;99932.28;;;19.64;49.12
69200;BME280;56313;49.804;9.952;2022-07-06T07:17:15;99928.03;;;19.70;49.57
69200;BME280;56313;49.804;9.952;2022-07-06T07:19:43;99928.03;;;19.70;48.97
69200;BME280;56313;49.804;9.952;2022-07-06T07:22:09;99930.03;;;19.90;53.76
69200;BME280;56313;49.804;9.952;2022-07-06T07:24:34;99929.53;;;20.65;57.01
69200;BME280;56313;49.804;9.952;2022-07-06T07:27:01;99936.44;;;20.95;60.38
69200;BME280;56313;49.804;9.952;2022-07-06T07:29:27;99930.50;;;20.57;54.19
69200;BME280;56313;49.804;9.952;2022-07-06T07:31:52;99926.69;;;20.31;48.28
69200;BME280;56313;49.804;9.952;2022-07-06T07:34:18;99932.66;;;19.61;48.90
69200;BME280;56313;49.804;9.952;2022-07-06T07:36:45;99926.25;;;20.28;51.47
69200;BME280;56313;49.804;9.952;2022-07-06T07:39:10;99926.63;;;20.24;48.46
69200;BME280;56313;49.804;9.952;2022-07-06T07:41:39;99934.03;;;20.29;54.22
69200;BME280;56313;49.804;9.952;2022-07-06T07:44:04;99929.25;;;20.53;47.13
69200;BME280;56313;49.804;9.952;2022-07-06T07:46:30;99921.19;;;20.82;46.90
69200;BME280;56313;49.804;9.952;2022-07-06T07:48:55;99925.34;;;20.49;47.66
69200;BME280;56313;49.804;9.952;2022-07-06T07:51:21;99932.91;;;19.88;48.43
69200;BME280;56313;49.804;9.952;2022-07-06T07:53:50;99926.34;;;20.12;48.49
69200;BME280;56313;49.804;9.952;2022-07-06T07:56:15;99921.28;;;20.53;56.03
69200;BME280;56313;49.804;9.952;2022-07-06T07:58:41;99928.91;;;19.77;47.73
69200;BME280;56313;49.804;9.952;2022-07-06T08:01:06;99925.13;;;20.15;51.89
69200;BME280;56313;49.804;9.952;2022-07-06T08:03:32;99924.97;;;19.95;47.41
69200;BME280;56313;49.804;9.952;2022-07-06T08:05:57;99918.81;;;20.51;51.36
69200;BME280;56313;49.804;9.952;2022-07-06T08:08:23;99914.47;;;20.08;47.15
69200;BME280;56313;49.804;9.952;2022-07-06T08:10:49;99917.34;;;20.13;47.70
69200;BME280;56313;49.804;9.952;2022-07-06T08:13:14;99912.66;;;20.51;47.36
69200;BME280;56313;49.804;9.952;2022-07-06T08:15:40;99912.31;;;19.97;47.34
69200;BME280;56313;49.804;9.952;2022-07-06T08:18:08;99913.69;;;19.93;48.61
69200;BME280;56313;49.804;9.952;2022-07-06T08:20:35;99906.53;;;20.50;55.33
69200;BME280;56313;49.804;9.952;2022-07-06T08:23:04;99908.72;;;20.40;47.22
69200;BME280;56313;49.804;9.952;2022-07-06T08:25:30;99909.13;;;20.44;49.94
69200;BME280;56313;49.804;9.952;2022-07-06T08:27:55;99911.50;;;20.25;46.41
69200;BME280;56313;49.804;9.952;2022-07-06T08:30:23;99908.38;;;20.57;47.68
69200;BME280;56313;49.804;9.952;2022-07-06T08:32:49;99910.94;;;20.36;51.87
69200;BME280;56313;49.804;9.952;2022-07-06T08:35:17;99914.28;;;20.17;46.09
69200;BME280;56313;49.804;9.952;2022-07-06T08:37:42;99909.91;;;20.37;46.41
69200;BME280;56313;49.804;9.952;2022-07-06T08:40:08;99920.28;;;20.61;52.22
69200;BME280;56313;49.804;9.952;2022-07-06T08:42:34;99915.13;;;20.17;46.40
69200;BME280;56313;49.804;9.952;2022-07-06T08:45:05;99911.38;;;20.40;45.84
69200;BME280;56313;49.804;9.952;2022-07-06T08:47:31;99923.19;;;20.73;51.68
69200;BME280;56313;49.804;9.952;2022-07-06T08:49:57;99921.59;;;20.85;55.67
69200;BME280;56313;49.804;9.952;2022-07-06T08:52:23;99918.75;;;20.87;52.11
69200;BME280;56313;49.804;9.952;2022-07-06T08:54:48;99916.97;;;20.94;45.48
69200;BME280;56313;49.804;9.952;2022-07-06T08:57:14;99912.72;;;21.13;51.77
69200;BME280;56313;49.804;9.952;2022-07-06T08:59:40;99930.88;;;20.89;45.11
69200;BME280;56313;49.804;9.952;2022-07-06T09:02:06;99921.69;;;20.57;45.42
69200;BME280;56313;49.804;9.952;2022-07-06T09:04:35;99922.00;;;20.82;52.56
69200;BME280;56313;49.804;9.952;2022-07-06T09:07:01;99921.75;;;20.70;55.12
69200;BME280;56313;49.804;9.952;2022-07-06T09:09:31;99925.63;;;20.68;45.58
69200;BME280;56313;49.804;9.952;2022-07-06T09:11:57;99925.44;;;21.11;56.70
69200;BME280;56313;49.804;9.952;2022-07-06T09:14:22;99914.81;;;21.52;45.16
69200;BME280;56313;49.804;9.952;2022-07-06T09:17:01;99925.06;;;20.79;48.47
69200;BME280;56313;49.804;9.952;2022-07-06T09:19:27;99926.34;;;20.48;52.24
69200;BME280;56313;49.804;9.952;2022-07-06T09:21:53;99936.22;;;20.19;50.71
69200;BME280;56313;49.804;9.952;2022-07-06T09:24:19;99933.25;;;20.35;50.84
69200;BME280;56313;49.804;9.952;2022-07-06T09:26:44;99930.72;;;20.27;49.81
69200;BME280;56313;49.804;9.952;2022-07-06T09:29:10;99934.88;;;20.36;50.81
69200;BME280;56313;49.804;9.952;2022-07-06T09:31:36;99934.06;;;20.71;48.64
69200;BME280;56313;49.804;9.952;2022-07-06T09:34:06;99930.97;;;21.17;54.18
69200;BME280;56313;49.804;9.952;2022-07-06T09:39:26;99930.63;;;20.84;44.45
69200;BME280;56313;49.804;9.952;2022-07-06T09:41:54;99930.44;;;20.86;52.78
69200;BME280;56313;49.804;9.952;2022-07-06T09:44:25;99940.81;;;20.74;44.94
69200;BME280;56313;49.804;9.952;2022-07-06T09:46:52;99934.34;;;20.90;45.21
69200;BME280;56313;49.804;9.952;2022-07-06T09:49:21;99931.16;;;21.08;45.18
69200;BME280;56313;49.804;9.952;2022-07-06T09:51:48;99934.91;;;21.55;43.44
69200;BME280;56313;49.804;9.952;2022-07-06T09:54:15;99935.44;;;21.09;56.45
69200;BME280;56313;49.804;9.952;2022-07-06T09:56:43;99935.25;;;21.18;54.93
69200;BME280;56313;49.804;9.952;2022-07-06T09:59:13;99933.41;;;21.25;44.38
69200;BME280;56313;49.804;9.952;2022-07-06T10:01:40;99925.06;;;21.35;52.00
69200;BME280;56313;49.804;9.952;2022-07-06T10:04:11;99928.16;;;20.83;44.42
69200;BME280;56313;49.804;9.952;2022-07-06T10:06:41;99931.09;;;20.95;48.42
69200;BME280;56313;49.804;9.952;2022-07-06T10:09:08;99933.38;;;20.98;44.01
69200;BME280;56313;49.804;9.952;2022-07-06T10:11:37;99930.78;;;21.32;53.95
69200;BME280;56313;49.804;9.952;2022-07-06T10:14:05;99924.41;;;21.19;49.43
69200;BME280;56313;49.804;9.952;2022-07-06T10:16:34;99922.63;;;21.47;41.75
69200;BME280;56313;49.804;9.952;2022-07-06T10:19:02;99914.13;;;21.09;57.31
69200;BME280;56313;49.804;9.952;2022-07-06T10:21:29;99928.53;;;21.22;42.74
69200;BME280;56313;49.804;9.952;2022-07-06T10:23:55;99932.06;;;21.63;43.08
69200;BME280;56313;49.804;9.952;2022-07-06T10:26:25;99922.63;;;21.67;43.71
69200;BME280;56313;49.804;9.952;2022-07-06T10:28:52;99920.53;;;21.22;56.32
69200;BME280;56313;49.804;9.952;2022-07-06T10:31:18;99931.19;;;21.29;43.97
69200;BME280;56313;49.804;9.952;2022-07-06T10:33:45;99923.63;;;21.32;55.25
69200;BME280;56313;49.804;9.952;2022-07-06T10:36:12;99922.53;;;21.13;46.01
69200;BME280;56313;49.804;9.952;2022-07-06T10:38:38;99936.06;;;21.11;42.76
69200;BME280;56313;49.804;9.952;2022-07-06T10:41:05;99923.56;;;21.05;41.39
69200;BME280;56313;49.804;9.952;2022-07-06T10:43:41;99923.84;;;21.51;40.28
69200;BME280;56313;49.804;9.952;2022-07-06T10:46:16;99925.25;;;21.40;51.86
69200;BME280;56313;49.804;9.952;2022-07-06T10:48:45;99924.59;;;21.18;56.08
69200;BME280;56313;49.804;9.952;2022-07-06T10:51:24;99922.81;;;21.45;53.44
69200;BME280;56313;49.804;9.952;2022-07-06T10:53:56;99927.13;;;21.53;44.70
69200;BME280;56313;49.804;9.952;2022-07-06T10:56:42;99920.16;;;21.65;40.74
69200;BME280;56313;49.804;9.952;2022-07-06T10:59:23;99918.31;;;21.32;43.39
69200;BME280;56313;49.804;9.952;2022-07-06T11:04:36;99913.78;;;21.26;54.82
69200;BME280;56313;49.804;9.952;2022-07-06T11:07:17;99912.13;;;21.32;56.46
69200;BME280;56313;49.804;9.952;2022-07-06T11:09:54;99903.34;;;21.72;41.16
69200;BME280;56313;49.804;9.952;2022-07-06T11:12:20;99904.59;;;21.56;38.86
69200;BME280;56313;49.804;9.952;2022-07-06T11:14:48;99909.91;;;21.49;40.07
69200;BME280;56313;49.804;9.952;2022-07-06T11:17:14;99914.34;;;21.08;44.24
69200;BME280;56313;49.804;9.952;2022-07-06T11:19:50;99908.41;;;21.12;47.70
69200;BME280;56313;49.804;9.952;2022-07-06T11:22:19;99917.06;;;21.35;48.80
69200;BME280;56313;49.804;9.952;2022-07-06T11:24:54;99912.31;;;21.17;54.18
69200;BME280;56313;49.804;9.952;2022-07-06T11:27:23;99910.69;;;21.16;55.75
69200;BME280;56313;49.804;9.952;2022-07-06T11:29:48;99920.72;;;21.27;51.23
69200;BME280;56313;49.804;9.952;2022-07-06T11:32:14;99914.44;;;21.75;42.84
69200;BME280;56313;49.804;9.952;2022-07-06T11:34:41;99910.69;;;21.43;54.05
69200;BME280;56313;49.804;9.952;2022-07-06T11:37:09;99908.00;;;21.16;57.33
69200;BME280;56313;49.804;9.952;2022-07-06T11:39:36;99919.66;;;21.14;47.36
69200;BME280;56313;49.804;9.952;2022-07-06T11:42:02;99902.91;;;21.27;40.89
69200;BME280;56313;49.804;9.952;2022-07-06T11:44:31;99906.41;;;21.55;41.16
69200;BME280;56313;49.804;9.952;2022-07-06T11:46:57;99907.66;;;21.59;47.99
69200;BME280;56313;49.804;9.952;2022-07-06T11:49:26;99918.53;;;21.51;51.92
69200;BME280;56313;49.804;9.952;2022-07-06T11:51:52;99911.50;;;21.23;45.61
69200;BME280;56313;49.804;9.952;2022-07-06T11:54:21;99915.44;;;21.41;50.04
69200;BME280;56313;49.804;9.952;2022-07-06T11:56:54;99908.25;;;21.27;55.87
69200;BME280;56313;49.804;9.952;2022-07-06T11:59:29;99913.59;;;21.48;51.60
69200;BME280;56313;49.804;9.952;2022-07-06T12:02:03;99907.44;;;22.08;38.22
69200;BME280;56313;49.804;9.952;2022-07-06T12:04:30;99918.13;;;21.54;52.05
69200;BME280;56313;49.804;9.952;2022-07-06T12:07:00;99923.75;;;21.10;39.63
69200;BME280;56313;49.804;9.952;2022-07-06T12:09:33;99909.72;;;21.57;39.04
69200;BME280;56313;49.804;9.952;2022-07-06T12:11:59;99900.06;;;22.10;40.18
69200;BME280;56313;49.804;9.952;2022-07-06T12:14:28;99886.72;;;22.03;37.49
69200;BME280;56313;49.804;9.952;2022-07-06T12:16:54;99892.47;;;22.07;43.79
69200;BME280;56313;49.804;9.952;2022-07-06T12:19:21;99888.78;;;22.01;42.07
69200;BME280;56313;49.804;9.952;2022-07-06T12:21:51;99885.91;;;22.03;37.77
69200;BME280;56313;49.804;9.952;2022-07-06T12:24:25;99881.97;;;22.26;37.21
69200;BME280;56313;49.804;9.952;2022-07-06T12:26:53;99894.72;;;21.49;36.49
69200;BME280;56313;49.804;9.952;2022-07-06T12:29:19;99892.69;;;21.58;36.37
69200;BME280;56313;49.804;9.952;2022-07-06T12:31:51;99889.22;;;21.92;46.32
69200;BME280;56313;49.804;9.952;2022-07-06T12:34:24;99883.88;;;21.98;46.58
69200;BME280;56313;49.804;9.952;2022-07-06T12:36:55;99897.19;;;21.44;50.31
69200;BME280;56313;49.804;9.952;2022-07-06T12:39:26;99888.56;;;21.35;54.39
69200;BME280;56313;49.804;9.952;2022-07-06T12:42:02;99891.81;;;21.04;54.22
69200;BME280;56313;49.804;9.952;2022-07-06T12:44:33;99882.22;;;21.63;40.42
69200;BME280;56313;49.804;9.952;2022-07-06T12:47:08;99875.91;;;21.78;49.32
69200;BME280;56313;49.804;9.952;2022-07-06T12:49:35;99866.59;;;22.81;34.22
69200;BME280;56313;49.804;9.952;2022-07-06T12:54:41;99879.78;;;21.89;40.67
69200;BME280;56313;49.804;9.952;2022-07-06T12:57:21;99872.03;;;22.47;36.35
69200;BME280;56313;49.804;9.952;2022-07-06T13:00:05;99876.25;;;22.15;35.79
69200;BME280;56313;49.804;9.952;2022-07-06T13:02:34;99881.44;;;21.83;35.42
69200;BME280;56313;49.804;9.952;2022-07-06T13:05:05;99870.69;;;22.24;44.76
69200;BME280;56313;49.804;9.952;2022-07-06T13:07:33;99876.28;;;21.41;52.30
69200;BME280;56313;49.804;9.952;2022-07-06T13:10:02;99860.69;;;21.92;35.69
69200;BME280;56313;49.804;9.952;2022-07-06T13:12:28;99866.75;;;22.33;43.87
69200;BME280;56313;49.804;9.952;2022-07-06T13:14:54;99885.50;;;21.52;47.35